Time;durP1;ratioP1;P1;durP2;ratioP2;P2;SDS_P1;SDS_P2;PMS_P1;PMS_P2;Temp;Humidity;BMP_temperature;BMP_pressure;BME280_temperature;BME280_humidity;BME280_pressure;Samples;Min_cycle;Max_cycle;Signal;HPM_P1;HPM_P2
2022/12/22 03:26:40;;;;;;;32.08;5.15;;;12.70;99.90;;;;;;5057237;28;20155;-69
2022/12/22 03:29:06;;;;;;;27.80;5.28;;;12.70;99.90;;;;;;5039413;28;20068;-69
2022/12/22 03:31:31;;;;;;;25.50;4.88;;;12.70;99.90;;;;;;5038980;28;20028;-69
2022/12/22 03:33:57;;;;;;;29.02;5.45;;;12.70;99.90;;;;;;5057409;28;20067;-69
2022/12/22 03:36:23;;;;;;;23.00;5.18;;;12.70;99.90;;;;;;5056767;28;20017;-69
2022/12/22 03:38:48;;;;;;;27.95;5.22;;;12.70;99.90;;;;;;5057208;28;20029;-69
2022/12/22 03:46:42;;;;;;;23.25;4.20;;;12.70;99.90;;;;;;5057049;28;20047;-69
2022/12/22 03:49:10;;;;;;;26.55;5.80;;;12.70;99.90;;;;;;5056913;28;20029;-69
2022/12/22 03:51:49;;;;;;;30.95;6.07;;;12.70;99.90;;;;;;5057039;28;20572;-69
2022/12/22 03:54:21;;;;;;;36.22;5.90;;;12.80;99.90;;;;;;5038932;28;20120;-69
2022/12/22 03:56:47;;;;;;;29.67;5.20;;;12.80;99.90;;;;;;5057019;28;20075;-69
2022/12/22 03:59:14;;;;;;;24.45;5.80;;;12.80;99.90;;;;;;5039336;28;20032;-69
2022/12/22 04:01:45;;;;;;;26.88;5.80;;;12.80;99.90;;;;;;5056767;28;20070;-69
2022/12/22 04:04:12;;;;;;;27.77;5.82;;;12.80;99.90;;;;;;5056921;28;20396;-69
2022/12/22 04:06:38;;;;;;;30.50;5.65;;;12.80;99.90;;;;;;5038868;28;20039;-69
2022/12/22 04:09:04;;;;;;;29.92;5.72;;;12.80;99.90;;;;;;5057034;28;20033;-69
2022/12/22 04:14:14;;;;;;;29.55;5.45;;;12.80;99.90;;;;;;5056918;28;20515;-69
2022/12/22 04:16:39;;;;;;;27.25;5.63;;;12.80;99.90;;;;;;5056707;28;20025;-69
2022/12/22 04:19:06;;;;;;;35.65;5.78;;;12.80;99.90;;;;;;5038788;28;20607;-69
2022/12/22 04:21:32;;;;;;;36.15;5.55;;;12.80;99.90;;;;;;5056607;28;20039;-69
2022/12/22 04:23:58;;;;;;;31.80;5.47;;;12.80;99.90;;;;;;5056600;28;20075;-69
2022/12/22 04:26:24;;;;;;;37.13;6.40;;;12.70;99.90;;;;;;5056710;28;20021;-69
2022/12/22 04:28:51;;;;;;;23.65;4.75;;;12.70;99.90;;;;;;5056570;28;20024;-69
2022/12/22 04:31:18;;;;;;;21.83;4.97;;;12.70;99.90;;;;;;5056511;28;20504;-69
2022/12/22 04:33:43;;;;;;;27.83;5.50;;;12.70;99.90;;;;;;5038670;28;20036;-69
2022/12/22 04:36:10;;;;;;;35.92;5.78;;;12.70;99.90;;;;;;5059282;28;20038;-69
2022/12/22 04:38:35;;;;;;;25.70;4.65;;;12.70;99.90;;;;;;5042480;28;20074;-69
2022/12/22 04:41:01;;;;;;;28.67;4.93;;;12.70;99.90;;;;;;5042811;28;20059;-69
2022/12/22 04:43:27;;;;;;;26.52;4.78;;;12.80;99.90;;;;;;5060069;28;20489;-69
2022/12/22 04:45:54;;;;;;;30.63;5.60;;;12.70;99.90;;;;;;5060189;28;20025;-69
2022/12/22 04:48:21;;;;;;;28.58;4.47;;;12.70;99.90;;;;;;5041967;28;20048;-69
2022/12/22 04:50:50;;;;;;;25.83;4.80;;;12.70;99.90;;;;;;5059919;28;20021;-69
2022/12/22 04:53:16;;;;;;;27.10;5.13;;;12.70;99.90;;;;;;5041909;28;20103;-69
2022/12/22 04:55:45;;;;;;;26.13;5.10;;;12.70;99.90;;;;;;5059963;28;20029;-70
2022/12/22 04:58:11;;;;;;;24.88;4.90;;;12.80;99.90;;;;;;5059984;28;20025;-69
2022/12/22 05:00:37;;;;;;;32.30;6.15;;;12.80;99.90;;;;;;5059787;28;20477;-69
2022/12/22 05:03:02;;;;;;;30.92;5.70;;;12.80;99.90;;;;;;5041639;28;20110;-69
2022/12/22 05:05:28;;;;;;;29.90;6.13;;;12.80;99.90;;;;;;5059770;28;20553;-69
2022/12/22 05:07:54;;;;;;;34.38;5.60;;;12.80;99.90;;;;;;5059630;28;20469;-69
2022/12/22 05:10:19;;;;;;;32.60;5.43;;;12.80;99.90;;;;;;5059499;28;20509;-69
2022/12/22 05:12:54;;;;;;;24.27;5.28;;;12.80;99.90;;;;;;5041756;28;20025;-69
2022/12/22 05:15:27;;;;;;;33.33;5.75;;;12.80;99.90;;;;;;5059640;28;20436;-69
2022/12/22 05:17:53;;;;;;;32.70;6.25;;;12.80;99.90;;;;;;5054563;28;20029;-69
2022/12/22 05:20:19;;;;;;;29.30;5.78;;;12.80;99.90;;;;;;5059327;28;20040;-69
2022/12/22 05:22:45;;;;;;;35.63;6.18;;;12.80;99.90;;;;;;5059373;28;20025;-69
2022/12/22 05:25:12;;;;;;;28.90;6.10;;;12.90;99.90;;;;;;5041403;28;20032;-69
2022/12/22 05:27:37;;;;;;;30.92;4.75;;;12.80;99.90;;;;;;5059288;28;20401;-69
2022/12/22 05:30:04;;;;;;;29.20;4.85;;;12.80;99.90;;;;;;5059294;28;20108;-69
2022/12/22 05:32:32;;;;;;;28.92;6.18;;;12.90;99.90;;;;;;5041183;28;20020;-69
2022/12/22 05:34:58;;;;;;;26.38;4.70;;;12.80;99.90;;;;;;5059135;28;20021;-69
2022/12/22 05:37:23;;;;;;;27.73;5.07;;;12.90;99.90;;;;;;5058774;28;20090;-69
2022/12/22 05:39:49;;;;;;;33.55;5.00;;;12.90;99.90;;;;;;5059094;28;20017;-69
2022/12/22 05:42:34;;;;;;;31.08;5.03;;;12.80;99.90;;;;;;5059160;28;20454;-69
2022/12/22 05:45:08;;;;;;;30.02;4.85;;;12.80;99.90;;;;;;5058874;28;20070;-69
2022/12/22 05:47:34;;;;;;;28.73;4.47;;;12.80;99.90;;;;;;5058145;28;20029;-69
2022/12/22 05:50:00;;;;;;;31.98;5.40;;;12.80;99.90;;;;;;5058877;28;20035;-69
2022/12/22 05:52:26;;;;;;;28.63;5.28;;;12.80;99.90;;;;;;5040478;28;20032;-69
2022/12/22 05:54:52;;;;;;;29.60;4.90;;;12.80;99.90;;;;;;5059006;28;20073;-69
2022/12/22 05:57:17;;;;;;;23.15;5.07;;;12.80;99.90;;;;;;5058781;28;20071;-69
2022/12/22 05:59:43;;;;;;;30.50;5.22;;;12.80;99.90;;;;;;5058920;28;20013;-69
2022/12/22 06:02:09;;;;;;;26.33;4.47;;;12.80;99.90;;;;;;5058605;28;20032;-70
2022/12/22 06:04:34;;;;;;;23.52;4.65;;;12.70;99.90;;;;;;5058632;28;20025;-69
2022/12/22 06:07:00;;;;;;;28.17;5.47;;;12.70;99.90;;;;;;5058652;28;20040;-69
2022/12/22 06:09:26;;;;;;;26.42;5.07;;;12.70;99.90;;;;;;5058419;28;20040;-69
2022/12/22 06:11:51;;;;;;;27.00;4.75;;;12.70;99.90;;;;;;5040260;28;20386;-69
2022/12/22 06:14:17;;;;;;;23.40;4.60;;;12.70;99.90;;;;;;5058380;28;20503;-69
2022/12/22 06:16:42;;;;;;;27.52;5.18;;;12.70;99.90;;;;;;5058333;28;20029;-69
2022/12/22 06:19:08;;;;;;;22.63;4.78;;;12.70;99.90;;;;;;5058382;28;20064;-69
2022/12/22 06:21:34;;;;;;;26.92;5.05;;;12.60;99.90;;;;;;5058244;28;20029;-69
2022/12/22 06:23:59;;;;;;;28.85;5.20;;;12.70;99.90;;;;;;5058341;28;20027;-69
2022/12/22 06:26:25;;;;;;;24.15;4.75;;;12.70;99.90;;;;;;5040217;28;20033;-69
2022/12/22 06:28:50;;;;;;;31.67;4.85;;;12.70;99.90;;;;;;5058084;28;20021;-69
2022/12/22 06:31:16;;;;;;;25.27;4.82;;;12.70;99.90;;;;;;5040147;28;20025;-69
2022/12/22 06:33:42;;;;;;;24.92;4.35;;;12.70;99.90;;;;;;5040058;28;20076;-69
2022/12/22 06:36:08;;;;;;;23.33;4.35;;;12.70;99.90;;;;;;5057799;28;20055;-69
2022/12/22 06:38:34;;;;;;;28.33;4.72;;;12.70;99.90;;;;;;5058033;28;20025;-69
2022/12/22 06:40:59;;;;;;;23.77;4.50;;;12.70;99.90;;;;;;5039838;28;20029;-69
2022/12/22 06:43:25;;;;;;;20.02;4.57;;;12.70;99.90;;;;;;5040095;28;20436;-69
2022/12/22 06:45:51;;;;;;;29.50;5.05;;;12.70;99.90;;;;;;5058001;28;20438;-71
2022/12/22 06:48:17;;;;;;;26.83;4.65;;;12.70;99.90;;;;;;5039709;28;20021;-69
2022/12/22 06:50:43;;;;;;;27.90;4.85;;;12.70;99.90;;;;;;5057429;28;20075;-69
2022/12/22 06:53:09;;;;;;;28.17;5.00;;;12.70;99.90;;;;;;5039795;28;20515;-69
2022/12/22 06:55:36;;;;;;;24.90;4.60;;;12.70;99.90;;;;;;5058008;28;20031;-69
2022/12/22 06:58:01;;;;;;;20.10;4.88;;;12.70;99.90;;;;;;5056989;28;20057;-69
2022/12/22 07:00:27;;;;;;;28.88;4.63;;;12.70;99.90;;;;;;5039644;28;20017;-69
2022/12/22 07:02:53;;;;;;;14.73;3.60;;;12.70;99.90;;;;;;5057106;28;20028;-69
2022/12/22 07:05:19;;;;;;;21.02;4.30;;;12.70;99.90;;;;;;5057420;28;20025;-69
2022/12/22 07:07:44;;;;;;;26.35;5.72;;;12.70;99.90;;;;;;5057229;28;20081;-69
2022/12/22 07:10:10;;;;;;;25.13;5.00;;;12.70;99.90;;;;;;5057718;28;20052;-69
2022/12/22 07:12:36;;;;;;;21.02;4.80;;;12.70;99.90;;;;;;5057331;28;20036;-69
2022/12/22 07:15:01;;;;;;;26.25;4.53;;;12.70;99.90;;;;;;5057487;28;20433;-69
2022/12/22 07:17:27;;;;;;;26.95;4.38;;;12.70;99.90;;;;;;5057186;28;20045;-69
2022/12/22 07:19:53;;;;;;;26.73;4.75;;;12.70;99.90;;;;;;5057499;28;20100;-69
2022/12/22 07:22:19;;;;;;;20.25;3.85;;;12.70;99.90;;;;;;5057037;28;20025;-69
2022/12/22 07:24:44;;;;;;;26.85;4.65;;;12.70;99.90;;;;;;5056854;28;20039;-69
2022/12/22 07:27:10;;;;;;;22.75;4.55;;;12.70;99.90;;;;;;5057203;28;20509;-69
2022/12/22 07:29:35;;;;;;;26.88;5.10;;;12.60;99.90;;;;;;5056943;28;20451;-68
2022/12/22 07:32:02;;;;;;;22.80;3.92;;;12.60;99.90;;;;;;5039093;28;20485;-69
2022/12/22 07:34:28;;;;;;;27.27;4.72;;;12.60;99.90;;;;;;5057226;28;20389;-68
2022/12/22 07:36:54;;;;;;;25.08;4.45;;;12.60;99.90;;;;;;5056700;28;20508;-71
2022/12/22 07:39:19;;;;;;;28.00;5.10;;;12.60;99.90;;;;;;5057156;28;20017;-68
2022/12/22 07:44:29;;;;;;;27.83;5.50;;;12.60;99.90;;;;;;5057011;28;20040;-69
2022/12/22 07:46:55;;;;;;;21.10;4.47;;;12.60;99.90;;;;;;5057177;28;20025;-69
2022/12/22 07:52:05;;;;;;;20.52;3.85;;;12.60;99.90;;;;;;5056450;28;20035;-69
2022/12/22 07:54:30;;;;;;;24.48;4.38;;;12.60;99.90;;;;;;5056594;28;20017;-69
2022/12/22 07:56:56;;;;;;;19.70;3.80;;;12.60;99.90;;;;;;5055946;28;20078;-69
2022/12/22 07:59:22;;;;;;;21.02;4.40;;;12.60;99.90;;;;;;5055565;28;20082;-69
2022/12/22 08:01:47;;;;;;;27.42;4.50;;;12.70;99.90;;;;;;5056825;28;20032;-69
2022/12/22 08:04:13;;;;;;;24.67;4.60;;;12.60;99.90;;;;;;5056799;28;20104;-69
2022/12/22 08:06:39;;;;;;;31.92;5.45;;;12.70;99.90;;;;;;5056913;28;20608;-69
2022/12/22 08:09:06;;;;;;;36.60;6.32;;;12.70;99.90;;;;;;5056692;28;20080;-69
2022/12/22 08:11:33;;;;;;;26.58;4.82;;;12.70;99.90;;;;;;5060266;28;20048;-69
2022/12/22 08:13:58;;;;;;;23.90;5.07;;;12.70;99.90;;;;;;5060693;28;20144;-69
2022/12/22 08:16:24;;;;;;;23.17;5.32;;;12.80;99.90;;;;;;5042524;28;20067;-69
2022/12/22 08:18:50;;;;;;;27.20;4.90;;;12.80;99.90;;;;;;5060552;28;20025;-69
2022/12/22 08:21:15;;;;;;;23.08;4.55;;;12.80;99.90;;;;;;5060578;28;20108;-69
2022/12/22 08:23:42;;;;;;;24.42;5.25;;;12.80;99.90;;;;;;5060367;28;20033;-69
2022/12/22 08:26:22;;;;;;;24.23;5.28;;;12.80;99.90;;;;;;5060688;28;20114;-69
2022/12/22 08:29:01;;;;;;;25.98;4.70;;;12.80;99.90;;;;;;5060342;28;20070;-69
2022/12/22 08:31:28;;;;;;;35.65;6.53;;;12.90;99.90;;;;;;5060223;28;20025;-69
2022/12/22 08:33:57;;;;;;;28.17;5.30;;;12.90;99.90;;;;;;5042746;28;20029;-69
2022/12/22 08:36:23;;;;;;;28.38;5.47;;;12.90;99.90;;;;;;5060010;28;20013;-69
2022/12/22 08:38:49;;;;;;;23.88;5.28;;;12.90;99.90;;;;;;5042379;28;20036;-69
2022/12/22 08:41:48;;;;;;;34.78;6.53;;;12.90;99.90;;;;;;5060157;28;20488;-69
2022/12/22 08:44:01;;;;;;;30.00;5.45;;;12.90;99.90;;;;;;5059992;28;20027;-69
2022/12/22 08:46:27;;;;;;;26.88;5.45;;;13.00;99.90;;;;;;5059976;28;20040;-69
2022/12/22 08:48:52;;;;;;;26.95;5.95;;;13.00;99.90;;;;;;5060081;28;20021;-69
2022/12/22 08:51:18;;;;;;;29.30;5.97;;;13.00;99.90;;;;;;5059767;28;20020;-69
2022/12/22 08:53:44;;;;;;;21.17;4.57;;;13.10;99.90;;;;;;5059966;28;20532;-69
2022/12/22 08:56:09;;;;;;;26.52;5.13;;;13.00;99.90;;;;;;5041967;28;20047;-69
2022/12/22 08:58:35;;;;;;;30.83;5.70;;;13.10;99.90;;;;;;5059507;28;20040;-69
2022/12/22 09:01:00;;;;;;;30.20;5.25;;;13.10;99.90;;;;;;5059829;28;20024;-69
2022/12/22 09:03:26;;;;;;;26.08;5.75;;;13.10;99.90;;;;;;5041848;28;20120;-69
2022/12/22 09:05:58;;;;;;;27.05;4.80;;;13.10;99.90;;;;;;5041506;28;20388;-69
2022/12/22 09:08:24;;;;;;;27.63;5.10;;;13.20;99.90;;;;;;5059842;28;20064;-69
2022/12/22 09:10:49;;;;;;;35.80;5.05;;;13.10;99.90;;;;;;5059492;28;20041;-69
2022/12/22 09:13:16;;;;;;;20.85;4.38;;;13.10;99.90;;;;;;5059481;28;20083;-69
2022/12/22 09:15:42;;;;;;;19.05;3.83;;;13.10;99.90;;;;;;5059690;28;20043;-69
2022/12/22 09:18:07;;;;;;;26.63;4.90;;;13.10;99.90;;;;;;5059498;28;20025;-69
2022/12/22 09:20:33;;;;;;;26.88;5.07;;;13.10;99.90;;;;;;5059057;28;20080;-69
2022/12/22 09:22:59;;;;;;;22.02;4.70;;;13.20;99.90;;;;;;5058481;28;20047;-69
2022/12/22 09:25:24;;;;;;;27.80;5.35;;;13.20;99.90;;;;;;5059446;28;20025;-69
2022/12/22 09:27:50;;;;;;;25.75;4.88;;;13.10;99.90;;;;;;5041452;28;20505;-69
2022/12/22 09:30:16;;;;;;;22.65;4.72;;;13.20;99.90;;;;;;5041420;28;20029;-69
2022/12/22 09:32:41;;;;;;;17.25;4.20;;;13.10;99.90;;;;;;5059174;28;20025;-69
2022/12/22 09:35:07;;;;;;;26.20;5.57;;;13.20;99.90;;;;;;5059353;28;20021;-69
2022/12/22 09:37:33;;;;;;;22.08;4.55;;;13.20;99.90;;;;;;5058811;28;20028;-69
2022/12/22 09:39:58;;;;;;;23.60;4.30;;;13.20;99.90;;;;;;5041218;28;20074;-69
2022/12/22 09:42:24;;;;;;;23.48;4.53;;;13.20;99.90;;;;;;5059202;28;20057;-69
2022/12/22 09:44:50;;;;;;;27.23;4.38;;;13.20;99.90;;;;;;5059061;28;20104;-69
2022/12/22 09:47:29;;;;;;;24.33;5.40;;;13.20;99.90;;;;;;5040996;28;20039;-69
2022/12/22 09:49:56;;;;;;;24.65;4.20;;;13.20;99.90;;;;;;5058873;28;20075;-69
2022/12/22 09:52:34;;;;;;;20.05;3.75;;;13.20;99.90;;;;;;5058713;28;20029;-69
2022/12/22 09:55:01;;;;;;;28.00;4.97;;;13.20;99.90;;;;;;5058887;28;20718;-69
2022/12/22 09:57:30;;;;;;;23.60;4.43;;;13.20;99.90;;;;;;5059081;28;20337;-69
2022/12/22 10:00:14;;;;;;;25.50;5.75;;;13.20;99.90;;;;;;5058914;28;20478;-69
2022/12/22 10:03:05;;;;;;;29.85;4.82;;;13.20;99.90;;;;;;5058532;28;20029;-69
2022/12/22 10:05:40;;;;;;;26.17;5.00;;;13.20;99.90;;;;;;5058404;28;20496;-69
2022/12/22 10:08:11;;;;;;;25.23;4.72;;;13.20;99.90;;;;;;5058433;28;20033;-69
2022/12/22 10:10:37;;;;;;;25.58;4.60;;;13.20;99.90;;;;;;5040443;28;20049;-69
2022/12/22 10:13:05;;;;;;;26.52;4.93;;;13.20;99.90;;;;;;5040581;28;20032;-69
2022/12/22 10:15:39;;;;;;;26.08;5.07;;;13.20;99.90;;;;;;5040413;28;20121;-69
2022/12/22 10:18:12;;;;;;;26.65;6.13;;;13.20;99.90;;;;;;5058311;28;20147;-69
2022/12/22 10:20:39;;;;;;;29.73;5.32;;;13.20;99.90;;;;;;5058287;28;20017;-69
2022/12/22 10:23:19;;;;;;;15.80;3.88;;;13.20;99.90;;;;;;5058353;28;20386;-69
2022/12/22 10:25:57;;;;;;;22.95;4.35;;;13.30;99.90;;;;;;5058495;28;20029;-69
2022/12/22 10:28:26;;;;;;;24.88;4.85;;;13.30;99.90;;;;;;5058293;28;20021;-69
2022/12/22 10:31:16;;;;;;;22.63;4.38;;;13.20;99.90;;;;;;5058278;28;20029;-69
2022/12/22 10:33:43;;;;;;;24.27;4.68;;;13.20;99.90;;;;;;5039752;28;20036;-70
2022/12/22 10:36:09;;;;;;;26.30;5.43;;;13.20;99.90;;;;;;5046798;28;20051;-69
2022/12/22 10:38:51;;;;;;;19.58;4.05;;;13.20;99.90;;;;;;5058617;28;20029;-69
2022/12/22 10:41:22;;;;;;;22.88;4.72;;;13.30;99.90;;;;;;5058073;28;20021;-69
2022/12/22 10:44:04;;;;;;;32.78;5.43;;;13.20;99.90;;;;;;5058015;28;20023;-69
2022/12/22 10:46:36;;;;;;;20.90;4.35;;;13.20;99.90;;;;;;5057470;28;20032;-69
2022/12/22 10:49:29;;;;;;;20.15;3.75;;;13.20;99.90;;;;;;5039951;28;20078;-69
2022/12/22 10:52:31;;;;;;;18.77;3.72;;;13.20;99.90;;;;;;5057728;28;20036;-69
2022/12/22 10:55:17;;;;;;;19.50;4.68;;;13.30;99.90;;;;;;4976745;28;20022;-69
2022/12/22 10:57:43;;;;;;;26.23;4.50;;;13.30;99.90;;;;;;5052357;28;20450;-69
2022/12/22 11:00:35;;;;;;;20.27;4.40;;;13.20;99.90;;;;;;5057724;28;20098;-69
2022/12/22 11:03:04;;;;;;;18.97;4.13;;;13.30;99.90;;;;;;5057509;28;20032;-69
2022/12/22 11:05:31;;;;;;;18.67;4.25;;;13.30;99.90;;;;;;5057534;28;20061;-69
2022/12/22 11:08:16;;;;;;;17.55;3.42;;;13.20;99.90;;;;;;5057641;28;20193;-69
2022/12/22 11:10:51;;;;;;;18.17;3.92;;;13.30;99.90;;;;;;5057427;28;20052;-69
2022/12/22 11:13:22;;;;;;;19.52;3.95;;;13.30;99.90;;;;;;5039369;28;20024;-69
2022/12/22 11:16:08;;;;;;;23.25;4.22;;;13.30;99.90;;;;;;5057638;28;20025;-69
2022/12/22 11:18:48;;;;;;;21.35;4.30;;;13.30;99.90;;;;;;5039353;28;20032;-69
2022/12/22 11:21:27;;;;;;;19.58;3.55;;;13.30;99.90;;;;;;5057300;28;20021;-69
2022/12/22 11:23:53;;;;;;;17.98;4.38;;;13.30;99.90;;;;;;5057240;28;20029;-69
2022/12/22 11:26:28;;;;;;;13.27;2.90;;;13.30;99.90;;;;;;5039460;28;20501;-69
2022/12/22 11:29:18;;;;;;;12.38;3.25;;;13.30;99.90;;;;;;5057088;28;20106;-69
2022/12/22 11:32:00;;;;;;;14.63;2.85;;;13.30;99.90;;;;;;5057233;28;20021;-69
2022/12/22 11:34:48;;;;;;;14.25;3.15;;;13.30;99.90;;;;;;5057309;28;20082;-69
2022/12/22 11:37:25;;;;;;;13.18;2.63;;;13.30;99.90;;;;;;5047670;28;20159;-69
2022/12/22 11:40:08;;;;;;;14.00;2.90;;;13.30;99.90;;;;;;5039105;28;20029;-69
2022/12/22 11:42:46;;;;;;;15.38;3.65;;;13.40;99.90;;;;;;5057224;28;20051;-69
2022/12/22 11:45:35;;;;;;;15.93;2.92;;;13.30;99.90;;;;;;5058681;28;20083;-69
2022/12/22 11:48:21;;;;;;;10.68;2.90;;;13.40;99.90;;;;;;5060993;28;20469;-69
2022/12/22 11:50:58;;;;;;;14.85;2.38;;;13.40;99.90;;;;;;5042946;28;20029;-69
2022/12/22 11:53:24;;;;;;;13.07;2.38;;;13.40;99.90;;;;;;5061183;28;20120;-69
2022/12/22 11:56:02;;;;;;;14.80;3.20;;;13.40;99.90;;;;;;5061042;28;20110;-69
2022/12/22 11:58:42;;;;;;;11.45;2.78;;;13.40;99.90;;;;;;5043178;28;20083;-69
2022/12/22 12:01:27;;;;;;;10.43;2.55;;;13.40;99.90;;;;;;5060699;28;20041;-69
2022/12/22 12:04:14;;;;;;;9.70;2.40;;;13.40;99.90;;;;;;5042946;28;20404;-69
2022/12/22 12:06:49;;;;;;;4.55;1.77;;;13.40;99.90;;;;;;5042828;28;20021;-69
2022/12/22 12:09:46;;;;;;;8.90;2.05;;;13.40;99.90;;;;;;5060952;28;20029;-69
2022/12/22 12:12:24;;;;;;;6.75;2.00;;;13.40;99.90;;;;;;5014730;28;20048;-69
2022/12/22 12:14:53;;;;;;;7.72;1.55;;;13.40;99.90;;;;;;5060695;28;20393;-69
2022/12/22 12:17:34;;;;;;;5.00;1.48;;;13.40;99.90;;;;;;5042352;28;20095;-69
2022/12/22 12:20:18;;;;;;;4.55;1.40;;;13.50;99.90;;;;;;5060964;28;20055;-69
2022/12/22 12:23:15;;;;;;;7.05;1.60;;;13.50;99.90;;;;;;5060777;28;20029;-69
2022/12/22 12:26:12;;;;;;;4.47;1.20;;;13.50;99.90;;;;;;5060744;28;20100;-69
2022/12/22 12:28:46;;;;;;;3.65;0.93;;;13.50;99.90;;;;;;5042750;28;20052;-69
2022/12/22 12:31:14;;;;;;;4.07;0.82;;;13.50;99.90;;;;;;5060543;28;20099;-69
2022/12/22 12:33:53;;;;;;;3.33;1.10;;;13.50;99.90;;;;;;5060044;28;20037;-69
2022/12/22 12:36:40;;;;;;;3.42;0.98;;;13.40;99.90;;;;;;5049644;28;20084;-69
2022/12/22 12:39:16;;;;;;;3.38;1.13;;;13.50;99.90;;;;;;5060427;28;20028;-69
2022/12/22 12:42:00;;;;;;;2.75;0.80;;;13.40;99.90;;;;;;5060240;28;20489;-69
2022/12/22 12:44:31;;;;;;;2.67;0.93;;;13.50;99.90;;;;;;5042219;28;20029;-69
2022/12/22 12:47:06;;;;;;;4.30;1.00;;;13.50;99.90;;;;;;5060068;28;20437;-69
2022/12/22 12:49:34;;;;;;;2.88;0.77;;;13.50;99.90;;;;;;5060262;28;20044;-69
2022/12/22 12:52:08;;;;;;;2.22;0.80;;;13.50;99.90;;;;;;5060020;28;20075;-69
2022/12/22 12:54:35;;;;;;;2.50;0.73;;;13.50;99.90;;;;;;5060078;28;20030;-69
2022/12/22 12:57:09;;;;;;;1.48;0.68;;;13.50;99.90;;;;;;5059862;28;20116;-69
2022/12/22 12:59:41;;;;;;;1.10;0.50;;;13.50;99.90;;;;;;5041970;28;20035;-69
2022/12/22 13:02:26;;;;;;;2.08;0.70;;;13.60;99.90;;;;;;5059885;28;20028;-69
2022/12/22 13:05:12;;;;;;;2.40;0.63;;;13.60;99.90;;;;;;5059943;28;20032;-69
2022/12/22 13:08:26;;;;;;;2.08;0.60;;;13.60;99.90;;;;;;5059509;28;20052;-69
2022/12/22 13:10:51;;;;;;;1.20;0.60;;;13.60;99.90;;;;;;5042070;28;20071;-69
2022/12/22 13:13:20;;;;;;;1.25;0.40;;;13.70;99.90;;;;;;5059601;28;20496;-69
2022/12/22 13:15:48;;;;;;;1.90;0.70;;;13.70;99.90;;;;;;5059600;28;20025;-69
2022/12/22 13:18:23;;;;;;;1.45;0.70;;;13.70;99.90;;;;;;5059558;28;20100;-70
2022/12/22 13:21:15;;;;;;;1.90;0.60;;;13.70;99.90;;;;;;5059495;28;20029;-69
2022/12/22 13:24:04;;;;;;;0.98;0.45;;;13.70;99.90;;;;;;5059427;28;20028;-70
2022/12/22 13:26:39;;;;;;;1.27;0.50;;;13.80;99.90;;;;;;5041437;28;20043;-69
2022/12/22 13:29:21;;;;;;;1.50;0.60;;;13.80;99.90;;;;;;5059703;28;20024;-69
2022/12/22 13:32:19;;;;;;;1.58;0.60;;;13.80;99.90;;;;;;5041230;28;20033;-69
2022/12/22 13:35:43;;;;;;;0.90;0.63;;;13.90;99.90;;;;;;5059425;28;20025;-69
2022/12/22 13:38:26;;;;;;;1.48;0.60;;;13.90;99.90;;;;;;5023738;28;20566;-69
2022/12/22 13:40:52;;;;;;;1.50;0.43;;;13.90;99.90;;;;;;5041314;28;20039;-69
2022/12/22 13:43:19;;;;;;;1.08;0.50;;;13.90;99.90;;;;;;5059046;28;20029;-69
2022/12/22 13:45:52;;;;;;;1.15;0.50;;;14.00;99.90;;;;;;5059083;28;20021;-69
2022/12/22 13:48:40;;;;;;;0.77;0.55;;;14.00;99.90;;;;;;5059037;28;20021;-69
2022/12/22 13:51:27;;;;;;;0.88;0.50;;;14.00;99.90;;;;;;5058794;28;20024;-69
2022/12/22 13:54:00;;;;;;;2.17;0.50;;;14.00;99.90;;;;;;5040990;28;20040;-69
2022/12/22 13:56:32;;;;;;;1.58;0.50;;;14.10;99.90;;;;;;5059035;28;20120;-69
2022/12/22 13:59:00;;;;;;;1.50;0.60;;;14.10;99.90;;;;;;5058910;28;20427;-69
2022/12/22 14:01:26;;;;;;;1.42;0.35;;;14.20;99.90;;;;;;5058730;28;20095;-69
2022/12/22 14:03:58;;;;;;;1.10;0.40;;;14.20;99.90;;;;;;5058731;28;20028;-69
2022/12/22 14:06:30;;;;;;;1.10;0.47;;;14.20;99.90;;;;;;5058415;28;20025;-69
2022/12/22 14:09:22;;;;;;;1.20;0.57;;;14.20;99.90;;;;;;5058098;28;20084;-69
2022/12/22 14:12:05;;;;;;;1.33;0.50;;;14.30;99.90;;;;;;5058367;28;20045;-69
2022/12/22 14:14:36;;;;;;;1.60;0.40;;;14.30;99.90;;;;;;5058733;28;20071;-69
2022/12/22 14:17:03;;;;;;;0.60;0.30;;;14.30;99.90;;;;;;5058426;28;20512;-69
2022/12/22 14:19:32;;;;;;;1.13;0.40;;;14.30;99.90;;;;;;5058182;28;20393;-69
2022/12/22 14:22:04;;;;;;;1.30;0.38;;;14.30;99.90;;;;;;5058192;28;20025;-69
2022/12/22 14:24:42;;;;;;;0.45;0.30;;;14.30;99.90;;;;;;5058346;28;20025;-69
2022/12/22 14:27:22;;;;;;;0.73;0.40;;;14.40;99.90;;;;;;5057974;28;20025;-69
2022/12/22 14:29:47;;;;;;;0.57;0.38;;;14.40;99.90;;;;;;5058187;28;20108;-69
2022/12/22 14:32:37;;;;;;;1.02;0.50;;;14.40;99.90;;;;;;5058115;28;20072;-69
2022/12/22 14:35:13;;;;;;;1.30;0.50;;;14.40;99.90;;;;;;5057998;28;20029;-69
2022/12/22 14:37:38;;;;;;;0.80;0.30;;;14.50;99.90;;;;;;5048318;28;20055;-69
2022/12/22 14:40:05;;;;;;;0.88;0.40;;;14.60;99.90;;;;;;5058066;28;20067;-70
2022/12/22 14:42:32;;;;;;;1.40;0.50;;;14.60;99.90;;;;;;5058306;28;20025;-69
2022/12/22 14:44:58;;;;;;;1.20;0.40;;;14.60;99.90;;;;;;5057839;28;20500;-69
2022/12/22 14:47:25;;;;;;;1.52;0.55;;;14.60;99.90;;;;;;5057900;28;20028;-69
2022/12/22 14:49:53;;;;;;;1.17;0.30;;;14.60;99.90;;;;;;5039783;28;20052;-70
2022/12/22 14:52:34;;;;;;;1.25;0.40;;;14.60;99.90;;;;;;5039601;28;20060;-70
2022/12/22 14:55:03;;;;;;;0.95;0.30;;;14.70;99.90;;;;;;5058130;28;20081;-69
2022/12/22 14:57:38;;;;;;;0.88;0.32;;;14.70;99.90;;;;;;5057494;28;20490;-69
2022/12/22 15:00:25;;;;;;;0.85;0.20;;;14.70;99.90;;;;;;5039817;28;20115;-69
2022/12/22 15:02:58;;;;;;;1.35;0.30;;;14.70;99.90;;;;;;5057464;28;20033;-69
2022/12/22 15:05:37;;;;;;;0.82;0.40;;;14.70;99.90;;;;;;5057531;28;20056;-69
2022/12/22 15:08:05;;;;;;;1.00;0.45;;;14.80;99.90;;;;;;5057751;28;20037;-69
2022/12/22 15:10:42;;;;;;;0.70;0.30;;;14.80;99.90;;;;;;5039426;28;20044;-69
2022/12/22 15:13:17;;;;;;;0.82;0.30;;;14.80;99.90;;;;;;5057636;28;20431;-69
2022/12/22 15:15:43;;;;;;;0.93;0.30;;;14.80;99.90;;;;;;5057601;28;20501;-69
2022/12/22 15:18:13;;;;;;;0.45;0.30;;;14.90;99.90;;;;;;5057540;28;20052;-69
2022/12/22 15:20:39;;;;;;;1.45;0.40;;;14.90;99.90;;;;;;5038326;28;20048;-69
2022/12/22 15:23:11;;;;;;;0.38;0.30;;;14.90;99.90;;;;;;5057344;28;20039;-70
2022/12/22 15:25:37;;;;;;;0.60;0.30;;;14.90;99.90;;;;;;5057469;28;20024;-69
2022/12/22 15:28:03;;;;;;;0.90;0.35;;;15.00;99.90;;;;;;5039476;28;20025;-70
2022/12/22 15:30:29;;;;;;;1.35;0.40;;;15.00;99.90;;;;;;5057180;28;20017;-70
2022/12/22 15:32:58;;;;;;;0.38;0.30;;;15.00;99.90;;;;;;5057261;28;20417;-70
2022/12/22 15:35:29;;;;;;;1.17;0.40;;;15.00;99.90;;;;;;5056725;28;20021;-69
2022/12/22 15:37:54;;;;;;;0.50;0.30;;;15.00;99.90;;;;;;5057182;28;20044;-69
2022/12/22 15:40:23;;;;;;;0.43;0.22;;;15.00;99.90;;;;;;5039312;28;20022;-69
2022/12/22 15:42:49;;;;;;;1.40;0.60;;;15.00;99.90;;;;;;5057103;28;20025;-69
2022/12/22 15:45:16;;;;;;;1.67;0.60;;;15.00;99.90;;;;;;5057064;28;20032;-69
2022/12/22 15:47:47;;;;;;;0.88;0.50;;;15.00;99.90;;;;;;5056846;28;20401;-69
2022/12/22 15:50:26;;;;;;;1.67;0.52;;;15.00;99.90;;;;;;5056804;28;20021;-69
2022/12/22 15:52:55;;;;;;;1.23;0.40;;;14.90;99.90;;;;;;5057008;28;20032;-69
2022/12/22 15:55:20;;;;;;;1.85;0.57;;;14.90;99.90;;;;;;5039248;28;20428;-70
2022/12/22 15:57:52;;;;;;;1.98;0.60;;;15.00;99.90;;;;;;5038827;28;20024;-69
2022/12/22 16:00:19;;;;;;;1.05;0.63;;;14.90;99.90;;;;;;5057036;28;20064;-70
2022/12/22 16:02:45;;;;;;;2.38;0.60;;;14.90;99.90;;;;;;5056495;28;20021;-69
2022/12/22 16:05:11;;;;;;;1.55;0.50;;;14.90;99.90;;;;;;5056828;28;20033;-69
2022/12/22 16:07:38;;;;;;;1.27;0.50;;;14.80;99.90;;;;;;5056838;28;20056;-69
2022/12/22 16:10:07;;;;;;;1.33;0.50;;;14.80;99.90;;;;;;5056924;28;20124;-70
2022/12/22 16:12:33;;;;;;;1.23;0.55;;;14.70;99.90;;;;;;5056609;28;20036;-70
2022/12/22 16:15:00;;;;;;;2.13;0.60;;;14.80;99.90;;;;;;5056970;28;20013;-70
2022/12/22 16:17:27;;;;;;;2.00;0.60;;;14.80;99.90;;;;;;5056580;28;20021;-69
2022/12/22 16:19:53;;;;;;;1.85;0.52;;;14.80;99.90;;;;;;5057002;28;20421;-69
2022/12/22 16:22:26;;;;;;;1.33;0.57;;;14.80;99.90;;;;;;5056491;28;20108;-70
2022/12/22 16:24:52;;;;;;;1.58;0.63;;;14.80;99.90;;;;;;5038824;28;20078;-69
2022/12/22 16:27:17;;;;;;;1.50;0.70;;;14.80;99.90;;;;;;5056876;28;20037;-69
2022/12/22 16:29:47;;;;;;;1.35;0.60;;;14.80;99.90;;;;;;5056686;28;20036;-69
2022/12/22 16:32:27;;;;;;;0.90;0.43;;;14.80;99.90;;;;;;5059721;28;20027;-69
2022/12/22 16:35:11;;;;;;;2.05;0.57;;;14.80;99.90;;;;;;5060394;28;20025;-69
2022/12/22 16:37:37;;;;;;;1.30;0.50;;;14.90;99.90;;;;;;5060232;28;20025;-69
2022/12/22 16:40:04;;;;;;;1.85;0.75;;;14.90;99.90;;;;;;5060230;28;20021;-69